Time;durP1;ratioP1;P1;durP2;ratioP2;P2;SDS_P1;SDS_P2;PMS_P1;PMS_P2;Temp;Humidity;BMP_temperature;BMP_pressure;BME280_temperature;BME280_humidity;BME280_pressure;Samples;Min_cycle;Max_cycle;Signal;HPM_P1;HPM_P2
2023/05/14 10:27:43;;;;;;;;;4.00;4.00;;;;;20.63;43.03;98583.63;3557380;28;104813;-71
2023/05/14 10:30:14;;;;;;;;;6.00;6.00;;;;;20.51;41.95;98581.09;4813716;28;102101;-75
2023/05/14 10:32:42;;;;;;;;;6.33;6.33;;;;;19.89;42.78;98578.16;4823291;28;102342;-75
2023/05/14 10:35:21;;;;;;;;;6.33;6.00;;;;;19.75;42.76;98576.94;4823772;29;102381;-75
2023/05/14 10:37:51;;;;;;;;;7.00;6.67;;;;;19.75;41.14;98574.19;4816407;28;107745;-74
2023/05/14 10:40:22;;;;;;;;;5.33;4.00;;;;;19.78;39.98;98569.00;4820758;29;101936;-74
2023/05/14 10:42:51;;;;;;;;;3.00;3.00;;;;;19.97;40.46;98562.03;4820513;28;102322;-74
2023/05/14 10:45:18;;;;;;;;;6.00;5.00;;;;;19.95;39.96;98552.38;4821469;29;102126;-74
2023/05/14 10:47:47;;;;;;;;;5.67;5.00;;;;;20.20;39.68;98560.81;4822415;28;104019;-74
2023/05/14 10:50:16;;;;;;;;;5.67;4.67;;;;;20.28;41.49;98548.50;4823465;28;102028;-73
2023/05/14 10:52:45;;;;;;;;;6.33;6.00;;;;;20.23;40.90;98551.22;4824192;29;102561;-74
2023/05/14 10:55:13;;;;;;;;;6.33;6.33;;;;;20.02;39.91;98540.09;4820229;29;103964;-75
2023/05/14 10:57:45;;;;;;;;;7.67;7.00;;;;;20.21;43.50;98540.53;4819514;29;109440;-74
2023/05/14 11:00:13;;;;;;;;;5.33;4.33;;;;;20.22;42.03;98547.63;4821278;28;101990;-74
2023/05/14 11:02:43;;;;;;;;;6.00;5.33;;;;;20.40;41.83;98544.50;4823600;29;102279;-75
2023/05/14 11:05:14;;;;;;;;;7.67;7.00;;;;;19.77;40.98;98533.59;4821165;28;102275;-74
2023/05/14 11:07:53;;;;;;;;;5.33;5.33;;;;;20.29;43.40;98540.00;4821875;28;108800;-75
2023/05/14 11:10:20;;;;;;;;;3.33;3.33;;;;;20.47;39.50;98500.31;4819741;29;102472;-75
2023/05/14 11:12:51;;;;;;;;;3.00;2.67;;;;;20.96;39.96;98544.78;4820680;28;103091;-74
2023/05/14 11:15:30;;;;;;;;;3.00;1.00;;;;;21.02;42.31;98538.19;4820132;28;103148;-75
2023/05/14 11:18:40;;;;;;;;;3.00;3.00;;;;;20.75;39.34;98530.13;4818634;28;108755;-74
2023/05/14 11:21:26;;;;;;;;;2.00;2.00;;;;;20.99;40.68;98524.97;4813262;28;102754;-74
2023/05/14 11:24:12;;;;;;;;;2.33;2.33;;;;;21.32;41.33;98519.06;4820287;29;102264;-74
2023/05/14 11:27:03;;;;;;;;;1.00;1.00;;;;;21.55;38.51;98514.13;4813343;29;104125;-73
2023/05/14 11:30:02;;;;;;;;;2.00;2.00;;;;;21.48;38.48;98521.84;4814697;28;111765;-74
2023/05/14 11:32:53;;;;;;;;;4.00;4.00;;;;;21.25;40.80;98521.22;4816858;28;103608;-74
2023/05/14 11:35:51;;;;;;;;;1.00;1.00;;;;;20.90;40.20;98521.09;4817571;29;102427;-73
2023/05/14 11:38:27;;;;;;;;;3.00;3.00;;;;;21.29;41.48;98522.34;4819435;29;102283;-74
2023/05/14 11:40:57;;;;;;;;;3.00;3.00;;;;;21.52;38.79;98522.94;4818182;29;103248;-74
2023/05/14 11:43:28;;;;;;;;;2.00;2.00;;;;;21.45;38.84;98525.94;4807104;28;102635;-74
2023/05/14 11:45:55;;;;;;;;;1.33;1.33;;;;;21.40;37.58;98525.94;4820220;28;102569;-76
2023/05/14 11:48:22;;;;;;;;;3.00;3.00;;;;;21.51;39.04;98518.53;4820391;29;102490;-74
2023/05/14 11:50:51;;;;;;;;;1.33;1.33;;;;;21.74;39.02;98516.06;4819851;29;103971;-76
2023/05/14 11:53:26;;;;;;;;;1.00;1.00;;;;;21.77;39.50;98521.03;4816705;28;102360;-76
2023/05/14 11:55:54;;;;;;;;;1.00;1.00;;;;;21.70;39.00;98506.69;4818978;29;102272;-75
2023/05/14 11:58:21;;;;;;;;;0.00;0.00;;;;;21.87;37.92;98509.19;4821093;28;102475;-76
2023/05/14 12:00:52;;;;;;;;;2.00;1.00;;;;;21.73;38.73;98503.41;4821969;29;104002;-73
2023/05/14 12:03:24;;;;;;;;;2.00;1.00;;;;;21.51;41.04;98499.28;4818791;28;103612;-74
2023/05/14 12:05:59;;;;;;;;;5.00;4.33;;;;;21.00;40.69;98487.31;4820067;29;102332;-76
2023/05/14 12:08:30;;;;;;;;;5.00;5.00;;;;;21.06;39.58;98495.31;4820021;28;102490;-74
2023/05/14 12:10:59;;;;;;;;;4.33;4.00;;;;;21.07;41.94;98487.91;4819081;28;104081;-74
2023/05/14 12:13:30;;;;;;;;;2.00;2.00;;;;;21.36;40.47;98481.66;4819961;29;102202;-75
2023/05/14 12:16:00;;;;;;;;;3.00;3.00;;;;;21.53;40.73;98472.28;4818140;29;102175;-75
2023/05/14 12:18:30;;;;;;;;;4.00;4.00;;;;;20.81;44.63;98470.50;4820354;28;102355;-73
2023/05/14 12:21:04;;;;;;;;;4.00;4.00;;;;;21.00;40.60;98460.66;4817179;28;104291;-75
2023/05/14 12:23:32;;;;;;;;;3.33;3.00;;;;;20.97;42.46;98458.47;4818924;29;101925;-74
2023/05/14 12:26:07;;;;;;;;;3.00;3.00;;;;;21.04;41.91;98456.25;4802734;29;102273;-74
2023/05/14 12:28:35;;;;;;;;;2.67;2.00;;;;;21.44;41.05;98450.00;4815895;28;102450;-74
2023/05/14 12:31:04;;;;;;;;;4.00;3.00;;;;;21.23;43.37;98443.69;4817417;28;104261;-74
2023/05/14 12:33:31;;;;;;;;;3.00;2.00;;;;;21.43;40.36;98436.56;4815891;29;102225;-74
2023/05/14 12:36:01;;;;;;;;;2.00;2.00;;;;;20.96;39.96;98437.56;4813647;28;102027;-74
2023/05/14 12:38:47;;;;;;;;;2.00;2.00;;;;;21.21;41.16;98431.28;4807951;28;103362;-73
2023/05/14 12:41:16;;;;;;;;;1.67;1.67;;;;;21.43;42.74;98431.03;4818223;28;104138;-71
2023/05/14 12:43:43;;;;;;;;;1.00;1.00;;;;;21.45;38.94;98432.41;4822701;28;102552;-74
2023/05/14 12:46:10;;;;;;;;;2.00;2.00;;;;;21.51;40.33;98433.25;4817151;28;103939;-74
2023/05/14 12:48:37;;;;;;;;;1.00;1.00;;;;;21.66;38.49;98427.72;4821332;28;102443;-73
2023/05/14 12:51:05;;;;;;;;;0.00;0.00;;;;;21.53;39.73;98420.84;4819469;28;102923;-75
2023/05/14 12:53:32;;;;;;;;;1.67;1.67;;;;;21.51;38.97;98423.06;4822240;28;102162;-77
2023/05/14 12:56:00;;;;;;;;;3.00;3.00;;;;;21.35;40.97;98422.22;4824823;28;102387;-75
2023/05/14 12:58:27;;;;;;;;;3.00;3.00;;;;;21.72;42.65;98424.69;4824346;28;103382;-75
2023/05/14 13:00:54;;;;;;;;;2.00;2.00;;;;;21.56;40.62;98414.81;4813010;28;104032;-75
2023/05/14 13:03:21;;;;;;;;;1.33;1.33;;;;;21.47;41.08;98415.63;4818572;29;103517;-74
2023/05/14 13:05:49;;;;;;;;;2.67;2.00;;;;;21.47;44.55;98404.63;4805172;28;103266;-74
2023/05/14 13:08:16;;;;;;;;;2.00;2.00;;;;;21.42;42.80;98405.47;4822460;28;102653;-74
2023/05/14 13:10:43;;;;;;;;;2.33;2.33;;;;;21.39;44.09;98399.69;4820077;28;107812;-74
2023/05/14 13:13:11;;;;;;;;;3.33;3.00;;;;;21.21;43.75;98398.28;4823796;28;102305;-76
2023/05/14 13:15:38;;;;;;;;;4.00;3.00;;;;;21.32;42.18;98395.28;4823856;28;101921;-76
2023/05/14 13:18:05;;;;;;;;;3.00;3.00;;;;;21.16;42.95;98398.31;4821337;28;103279;-74
2023/05/14 13:20:33;;;;;;;;;3.00;3.00;;;;;20.81;43.40;98399.03;4818922;29;104087;-75
2023/05/14 13:23:00;;;;;;;;;3.67;3.67;;;;;21.03;42.51;98394.13;4821578;28;102048;-75
2023/05/14 13:25:27;;;;;;;;;2.00;2.00;;;;;21.22;42.07;98398.03;4817502;28;102719;-75
2023/05/14 13:27:54;;;;;;;;;1.67;1.33;;;;;21.31;41.97;98396.38;4823318;29;102076;-75
2023/05/14 13:30:21;;;;;;;;;2.00;2.00;;;;;21.23;43.34;98393.34;4819182;28;103979;-75
2023/05/14 13:32:48;;;;;;;;;1.00;1.00;;;;;21.35;41.47;98372.72;4819305;29;102956;-75
2023/05/14 13:35:16;;;;;;;;;2.00;2.00;;;;;21.12;42.09;98373.22;4821280;28;103125;-76
2023/05/14 13:37:43;;;;;;;;;3.00;2.00;;;;;21.07;42.52;98373.25;4824809;28;102128;-75
2023/05/14 13:40:10;;;;;;;;;3.00;2.00;;;;;21.10;42.40;98361.69;4822039;28;108920;-75
2023/05/14 13:42:38;;;;;;;;;1.00;1.00;;;;;21.15;42.66;98356.25;4820021;29;103321;-75
2023/05/14 13:45:06;;;;;;;;;2.00;2.00;;;;;21.02;43.75;98359.50;4820804;28;102237;-75
2023/05/14 13:47:33;;;;;;;;;2.00;1.00;;;;;21.06;41.77;98360.59;4822353;29;102836;-75
2023/05/14 13:50:00;;;;;;;;;3.33;3.00;;;;;21.07;41.60;98356.75;4819188;28;104137;-74
2023/05/14 13:52:27;;;;;;;;;2.00;2.00;;;;;21.04;42.02;98350.97;4818820;29;102382;-73
2023/05/14 13:54:55;;;;;;;;;1.00;1.00;;;;;21.08;42.73;98344.63;4820307;28;102377;-72
2023/05/14 13:57:22;;;;;;;;;1.00;1.00;;;;;21.18;42.40;98341.94;4820084;28;103247;-73
2023/05/14 13:59:49;;;;;;;;;2.00;2.00;;;;;20.93;42.63;98323.50;4819277;28;105049;-72
2023/05/14 14:02:16;;;;;;;;;2.33;2.33;;;;;20.78;42.40;98325.41;4816804;28;102649;-72
2023/05/14 14:04:43;;;;;;;;;2.00;2.00;;;;;20.60;45.38;98313.00;4819627;29;102501;-72
2023/05/14 14:07:10;;;;;;;;;5.33;4.67;;;;;20.77;43.99;98326.50;4820578;29;102234;-73
2023/05/14 14:09:37;;;;;;;;;3.00;3.00;;;;;20.89;43.75;98322.38;4820431;29;104064;-72
2023/05/14 14:12:05;;;;;;;;;2.00;2.00;;;;;21.07;44.47;98318.28;4819623;28;102146;-73
2023/05/14 14:14:32;;;;;;;;;2.33;2.33;;;;;20.94;44.27;98319.63;4817056;29;103364;-73
2023/05/14 14:16:59;;;;;;;;;4.00;4.00;;;;;20.71;44.47;98308.38;4817235;28;103462;-74
2023/05/14 14:19:26;;;;;;;;;3.00;3.00;;;;;20.59;43.64;98305.03;4821253;29;104313;-73
2023/05/14 14:21:53;;;;;;;;;3.00;3.00;;;;;20.60;43.40;98298.44;4820492;28;102347;-73
2023/05/14 14:24:20;;;;;;;;;3.00;3.00;;;;;20.58;44.52;98292.41;4817981;28;103571;-74
2023/05/14 14:26:47;;;;;;;;;4.00;3.00;;;;;20.50;44.19;98288.25;4820621;28;103768;-72
2023/05/14 14:29:14;;;;;;;;;2.67;2.67;;;;;20.41;46.68;98293.47;4823781;29;103977;-73
2023/05/14 14:31:43;;;;;;;;;2.00;2.00;;;;;20.18;45.85;98302.16;4822225;29;101865;-74
2023/05/14 14:34:10;;;;;;;;;2.33;2.33;;;;;19.94;45.54;98293.59;4822238;29;103895;-74
2023/05/14 14:36:37;;;;;;;;;4.00;4.00;;;;;19.92;43.86;98290.28;4821722;29;102358;-75
2023/05/14 14:39:04;;;;;;;;;5.67;5.00;;;;;19.91;45.34;98293.28;4807371;28;104522;-73
2023/05/14 14:41:32;;;;;;;;;2.00;2.00;;;;;19.88;45.57;98299.31;4819561;28;102335;-74
2023/05/14 14:44:01;;;;;;;;;3.00;3.00;;;;;19.99;45.21;98284.56;4820017;29;102735;-73
2023/05/14 14:46:30;;;;;;;;;1.67;1.67;;;;;19.97;44.26;98281.25;4820685;29;102470;-74
2023/05/14 14:48:57;;;;;;;;;3.00;3.00;;;;;19.95;44.73;98280.69;4820173;29;103219;-74
2023/05/14 14:51:25;;;;;;;;;2.00;1.67;;;;;19.91;44.79;98272.16;4818370;29;104172;-74
2023/05/14 14:53:53;;;;;;;;;1.67;1.67;;;;;19.66;44.96;98272.06;4817089;28;102479;-73
2023/05/14 14:56:20;;;;;;;;;3.00;3.00;;;;;19.63;44.97;98258.91;4821126;28;102308;-74
2023/05/14 14:58:47;;;;;;;;;2.00;2.00;;;;;19.73;44.73;98258.09;4816085;28;104067;-73
2023/05/14 15:01:15;;;;;;;;;2.67;2.67;;;;;19.70;45.11;98253.16;4822480;29;102142;-74
2023/05/14 15:03:44;;;;;;;;;0.67;0.67;;;;;19.66;45.90;98241.91;4817690;29;102044;-74
2023/05/14 15:06:11;;;;;;;;;2.33;2.00;;;;;19.60;46.82;98243.78;4819953;28;102032;-73
2023/05/14 15:08:38;;;;;;;;;1.67;1.67;;;;;19.80;45.52;98248.53;4817941;28;105220;-73
2023/05/14 15:11:07;;;;;;;;;2.67;2.67;;;;;19.54;44.91;98244.06;4816718;28;108521;-73
2023/05/14 15:13:34;;;;;;;;;1.67;1.67;;;;;19.70;45.06;98236.69;4822132;29;102446;-73
2023/05/14 15:16:01;;;;;;;;;2.00;2.00;;;;;19.72;44.52;98234.53;4817117;28;102566;-73
2023/05/14 15:18:28;;;;;;;;;1.33;1.33;;;;;19.78;44.65;98234.25;4820204;29;103951;-72
2023/05/14 15:20:55;;;;;;;;;1.67;1.67;;;;;19.72;45.47;98246.31;4819787;28;105648;-72
2023/05/14 15:23:22;;;;;;;;;1.67;1.67;;;;;19.68;44.87;98249.88;4821251;28;102330;-73
2023/05/14 15:25:49;;;;;;;;;3.00;3.00;;;;;19.54;44.68;98244.84;4821158;29;101989;-73
2023/05/14 15:28:16;;;;;;;;;2.00;2.00;;;;;19.54;44.28;98244.84;4816881;28;104068;-73
2023/05/14 15:30:47;;;;;;;;;2.00;2.00;;;;;19.52;44.47;98244.31;4821657;28;102017;-73
2023/05/14 15:33:17;;;;;;;;;2.00;2.00;;;;;19.48;45.50;98239.63;4820982;28;102185;-72
2023/05/14 15:35:46;;;;;;;;;3.00;3.00;;;;;19.26;45.04;98245.25;4821468;29;102320;-72
2023/05/14 15:38:14;;;;;;;;;2.00;2.00;;;;;19.23;44.46;98237.53;4820564;29;107974;-74
2023/05/14 15:40:41;;;;;;;;;6.33;4.33;;;;;19.06;44.63;98237.72;4816383;28;102550;-74
2023/05/14 15:43:08;;;;;;;;;3.00;3.00;;;;;19.07;45.13;98236.63;4820666;28;102245;-74
2023/05/14 15:45:35;;;;;;;;;3.00;2.33;;;;;19.09;44.95;98236.38;4820081;28;105811;-74
2023/05/14 15:48:02;;;;;;;;;4.00;4.00;;;;;18.95;45.77;98229.69;4816918;28;104058;-73
2023/05/14 15:50:29;;;;;;;;;4.00;3.00;;;;;19.01;46.43;98231.38;4815258;29;102355;-74
2023/05/14 15:52:56;;;;;;;;;3.00;2.33;;;;;19.01;45.43;98223.97;4819196;29;102257;-75
2023/05/14 15:55:23;;;;;;;;;2.00;2.00;;;;;19.00;45.56;98221.50;4815057;29;102044;-74
2023/05/14 15:57:50;;;;;;;;;4.67;4.67;;;;;18.94;46.58;98217.91;4815407;28;104168;-72
2023/05/14 16:00:18;;;;;;;;;4.00;4.00;;;;;18.82;47.84;98208.25;4818660;28;102461;-73
2023/05/14 16:02:45;;;;;;;;;3.00;3.00;;;;;18.75;47.32;98213.09;4823357;29;102382;-72
2023/05/14 16:05:14;;;;;;;;;3.00;3.00;;;;;18.66;47.16;98199.91;4820631;28;102118;-73
2023/05/14 16:07:42;;;;;;;;;4.00;4.00;;;;;18.68;46.80;98194.19;4814824;28;104065;-74
2023/05/14 16:10:09;;;;;;;;;3.00;3.00;;;;;18.66;48.12;98194.44;4818135;28;102172;-74
2023/05/14 16:12:36;;;;;;;;;4.33;3.67;;;;;18.69;47.39;98185.69;4815103;29;102974;-74
2023/05/14 16:15:05;;;;;;;;;4.00;3.67;;;;;18.71;47.34;98190.91;4810240;29;102119;-74
2023/05/14 16:17:33;;;;;;;;;2.00;2.00;;;;;18.69;48.24;98187.59;4809733;28;104238;-74
2023/05/14 16:20:00;;;;;;;;;3.00;3.00;;;;;18.58;47.51;98192.19;4814542;28;102275;-73
2023/05/14 16:22:28;;;;;;;;;3.00;3.00;;;;;18.56;49.00;98191.59;4813352;29;102102;-74
2023/05/14 16:24:55;;;;;;;;;4.67;4.67;;;;;18.49;47.54;98188.25;4821669;29;102727;-75
2023/05/14 16:27:22;;;;;;;;;1.00;1.00;;;;;18.47;47.74;98184.09;4818877;29;104041;-75
2023/05/14 16:29:48;;;;;;;;;3.00;2.33;;;;;18.52;48.52;98189.63;4822981;28;102882;-74
2023/05/14 16:32:15;;;;;;;;;3.33;3.33;;;;;18.47;48.57;98192.31;4822057;28;102361;-75
2023/05/14 16:34:48;;;;;;;;;2.67;2.67;;;;;18.56;47.90;98190.78;4825781;28;101995;-76
2023/05/14 16:37:19;;;;;;;;;3.00;3.00;;;;;18.49;49.70;98184.69;4824491;29;108902;-73
2023/05/14 16:39:46;;;;;;;;;0.00;0.00;;;;;18.49;49.45;98188.25;4824497;29;102242;-74
2023/05/14 16:42:13;;;;;;;;;2.33;2.33;;;;;18.51;49.44;98179.75;4824078;29;102234;-74
2023/05/14 16:44:40;;;;;;;;;5.33;4.00;;;;;18.23;49.48;98181.75;4825233;28;102051;-74
2023/05/14 16:47:07;;;;;;;;;5.00;4.33;;;;;18.22;49.78;98174.63;4818118;29;104031;-75
2023/05/14 16:49:34;;;;;;;;;4.00;4.00;;;;;18.29;49.99;98179.84;4822011;29;102013;-75
2023/05/14 16:52:01;;;;;;;;;3.00;3.00;;;;;17.95;50.87;98131.94;4815948;28;102019;-73
2023/05/14 16:54:28;;;;;;;;;4.00;3.00;;;;;18.30;50.59;98189.72;4820529;28;102264;-74
2023/05/14 16:56:55;;;;;;;;;2.33;2.00;;;;;18.31;50.84;98177.69;4819475;28;104109;-74
2023/05/14 16:59:22;;;;;;;;;3.00;3.00;;;;;18.23;49.67;98178.19;4821313;28;102575;-74
2023/05/14 17:01:49;;;;;;;;;2.33;2.00;;;;;18.18;51.66;98178.13;4824559;28;102145;-74
2023/05/14 17:04:16;;;;;;;;;6.00;5.00;;;;;18.03;52.40;98167.03;4826723;29;102350;-74
2023/05/14 17:06:44;;;;;;;;;4.00;4.00;;;;;17.93;52.51;98173.22;4821453;29;110520;-75
2023/05/14 17:09:11;;;;;;;;;5.00;5.00;;;;;17.89;53.65;98171.28;4817127;28;102563;-75
2023/05/14 17:11:38;;;;;;;;;4.00;4.00;;;;;17.85;52.07;98173.69;4820754;28;102538;-75
2023/05/14 17:14:05;;;;;;;;;4.00;3.00;;;;;17.82;51.81;98166.84;4819712;28;102191;-75
2023/05/14 17:16:32;;;;;;;;;3.00;3.00;;;;;17.83;52.78;98173.94;4818839;28;104043;-74
2023/05/14 17:18:59;;;;;;;;;4.67;4.00;;;;;17.76;52.17;98165.13;4824327;29;102125;-74
2023/05/14 17:21:26;;;;;;;;;6.33;6.00;;;;;17.67;52.97;98161.22;4821168;28;102082;-75
2023/05/14 17:23:53;;;;;;;;;3.67;3.33;;;;;17.72;52.86;98157.72;4819253;29;102317;-75
2023/05/14 17:26:20;;;;;;;;;5.00;5.00;;;;;17.69;53.43;98159.06;4821355;29;103997;-74
2023/05/14 17:28:47;;;;;;;;;3.67;3.67;;;;;17.58;53.60;98160.03;4821426;29;101888;-75
2023/05/14 17:31:15;;;;;;;;;4.00;4.00;;;;;17.63;53.95;98154.59;4813704;28;102148;-74
2023/05/14 17:33:42;;;;;;;;;6.00;5.50;;;;;17.55;53.82;98155.03;4814031;28;107883;-74
2023/05/14 17:36:09;;;;;;;;;4.75;4.25;;;;;17.53;53.36;98150.91;4808285;28;104560;-74
2023/05/14 17:38:36;;;;;;;;;5.00;4.00;;;;;17.54;54.23;98152.56;4817223;29;103847;-73
2023/05/14 17:41:03;;;;;;;;;3.00;3.00;;;;;17.53;54.09;98151.72;4818637;28;102277;-74
2023/05/14 17:43:30;;;;;;;;;2.67;2.67;;;;;17.57;53.47;98163.81;4799082;29;102908;-74
2023/05/14 17:45:57;;;;;;;;;2.25;2.25;;;;;17.56;55.17;98155.88;4818233;28;104504;-75
2023/05/14 17:48:24;;;;;;;;;2.00;2.00;;;;;17.55;56.33;98159.69;4820460;29;102281;-74
2023/05/14 17:50:52;;;;;;;;;1.00;1.00;;;;;17.42;59.18;98167.16;4815406;28;102524;-73
2023/05/14 17:53:20;;;;;;;;;2.33;2.33;;;;;17.17;64.07;98163.31;4804750;29;102406;-74
2023/05/14 17:55:48;;;;;;;;;3.33;2.33;;;;;17.01;62.84;98164.22;4816193;28;108615;-75
2023/05/14 17:58:16;;;;;;;;;4.50;4.50;;;;;16.47;65.32;98174.88;4819058;29;103447;-74
2023/05/14 18:00:43;;;;;;;;;4.25;3.50;;;;;16.41;69.30;98175.84;4817060;28;101983;-74
2023/05/14 18:03:12;;;;;;;;;3.50;3.25;;;;;16.12;69.54;98166.09;4813237;29;102035;-73
2023/05/14 18:05:40;;;;;;;;;3.25;3.00;;;;;15.94;71.84;98172.63;4814851;28;104183;-73
2023/05/14 18:08:08;;;;;;;;;2.00;2.00;;;;;15.77;71.30;98196.28;4815276;29;102995;-74
2023/05/14 18:10:35;;;;;;;;;2.00;2.00;;;;;15.64;70.09;98194.66;4816632;28;103197;-72
2023/05/14 18:13:03;;;;;;;;;3.25;3.00;;;;;15.66;73.03;98203.44;4813514;28;102205;-73
2023/05/14 18:15:30;;;;;;;;;4.00;3.50;;;;;15.45;75.16;98193.16;4809276;28;104024;-71
2023/05/14 18:17:57;;;;;;;;;4.50;4.00;;;;;15.39;75.49;98188.69;4813743;28;102560;-74
2023/05/14 18:20:24;;;;;;;;;1.00;1.00;;;;;15.39;75.45;98192.25;4819800;29;102264;-72
2023/05/14 18:22:51;;;;;;;;;1.50;1.25;;;;;15.34;76.48;98194.88;4823630;28;102096;-73
2023/05/14 18:25:18;;;;;;;;;1.50;1.00;;;;;15.28;77.12;98198.56;4819384;28;109816;-73
2023/05/14 18:27:45;;;;;;;;;2.00;2.00;;;;;15.16;77.46;98201.31;4818915;28;102330;-73
2023/05/14 18:30:14;;;;;;;;;1.25;1.00;;;;;15.06;81.90;98186.66;4819429;28;102341;-74
2023/05/14 18:32:42;;;;;;;;;2.00;1.00;;;;;14.97;80.23;98196.25;4798700;28;102442;-74
2023/05/14 18:35:11;;;;;;;;;1.25;0.75;;;;;14.90;81.24;98190.13;4817431;28;104083;-74
2023/05/14 18:37:38;;;;;;;;;2.00;1.00;;;;;14.71;86.06;98186.69;4818481;29;103233;-73
2023/05/14 18:40:06;;;;;;;;;2.00;2.00;;;;;14.68;84.14;98192.59;4818054;28;102273;-73
2023/05/14 18:42:33;;;;;;;;;2.25;2.00;;;;;14.59;88.79;98194.03;4811403;28;107677;-73
2023/05/14 18:45:02;;;;;;;;;5.50;4.00;;;;;14.36;87.33;98204.91;4817991;29;104054;-74
2023/05/14 18:47:31;;;;;;;;;4.75;4.25;;;;;14.24;90.52;98205.66;4817329;28;102408;-74
2023/05/14 18:50:00;;;;;;;;;6.25;5.00;;;;;14.16;90.03;98206.03;4817821;28;102012;-72
2023/05/14 18:52:27;;;;;;;;;7.25;6.75;;;;;13.99;93.38;98206.94;4820132;29;102473;-73
2023/05/14 18:54:54;;;;;;;;;4.75;4.00;;;;;13.95;93.00;98208.44;4817043;28;104207;-71
2023/05/14 18:57:21;;;;;;;;;4.75;4.00;;;;;13.91;93.14;98207.25;4818466;29;102249;-73
2023/05/14 18:59:48;;;;;;;;;4.50;4.00;;;;;13.78;94.91;98202.81;4821712;28;102289;-74
2023/05/14 19:02:15;;;;;;;;;6.00;6.00;;;;;13.55;97.09;98197.31;4816727;28;102646;-74
2023/05/14 19:04:43;;;;;;;;;6.50;5.50;;;;;13.45;97.17;98195.16;4802683;28;104257;-75
2023/05/14 19:07:21;;;;;;;;;4.50;3.50;;;;;13.41;96.46;98188.53;4815782;29;102106;-74
2023/05/14 19:09:48;;;;;;;;;4.50;4.50;;;;;13.40;97.50;98186.84;4817824;28;102382;-74
2023/05/14 19:12:15;;;;;;;;;4.00;3.75;;;;;13.38;96.82;98192.50;4818613;28;102102;-74
2023/05/14 19:14:42;;;;;;;;;3.75;3.75;;;;;13.38;96.38;98192.50;4818762;28;104023;-75
2023/05/14 19:17:09;;;;;;;;;5.00;4.00;;;;;13.36;99.06;98189.22;4817061;29;102358;-74
2023/05/14 19:19:38;;;;;;;;;4.00;4.00;;;;;13.35;100.00;98211.97;4812832;28;102352;-75
2023/05/14 19:22:05;;;;;;;;;3.50;3.00;;;;;13.36;100.00;98216.38;4819716;29;102507;-75
2023/05/14 19:24:32;;;;;;;;;4.00;3.25;;;;;13.35;100.00;98209.28;4814886;28;103971;-76
2023/05/14 19:26:59;;;;;;;;;5.00;4.25;;;;;13.27;100.00;98215.03;4819236;28;102429;-75
2023/05/14 19:29:26;;;;;;;;;4.50;3.00;;;;;13.19;100.00;98223.44;4816966;28;102878;-75
2023/05/14 19:31:53;;;;;;;;;5.00;5.00;;;;;13.20;100.00;98221.56;4821627;29;103653;-75
2023/05/14 19:34:20;;;;;;;;;7.75;7.00;;;;;13.13;100.00;98226.25;4816187;28;108893;-75
2023/05/14 19:36:47;;;;;;;;;10.25;9.00;;;;;13.06;100.00;98223.56;4819645;28;103351;-75
2023/05/14 19:39:14;;;;;;;;;10.00;9.25;;;;;12.99;100.00;98220.13;4814932;28;103254;-75
2023/05/14 19:41:41;;;;;;;;;9.00;8.00;;;;;12.98;100.00;98213.00;4820742;29;101998;-74
2023/05/14 19:44:08;;;;;;;;;7.50;7.50;;;;;13.03;100.00;98218.59;4818520;28;104006;-75
2023/05/14 19:46:35;;;;;;;;;6.75;6.50;;;;;13.03;100.00;98218.59;4819303;29;102375;-75
2023/05/14 19:49:02;;;;;;;;;8.00;8.00;;;;;13.02;100.00;98226.97;4820937;28;102386;-75
2023/05/14 19:51:29;;;;;;;;;7.00;6.00;;;;;13.02;100.00;98213.38;4820349;28;101948;-75
2023/05/14 19:53:56;;;;;;;;;4.00;4.00;;;;;13.03;100.00;98210.47;4819604;29;104141;-75
2023/05/14 19:56:23;;;;;;;;;5.75;5.00;;;;;12.94;100.00;98206.38;4823475;28;102317;-75
2023/05/14 19:58:53;;;;;;;;;9.25;8.25;;;;;12.82;100.00;98203.59;4785870;29;102539;-75
2023/05/14 20:01:20;;;;;;;;;8.50;8.00;;;;;12.84;100.00;98193.34;4818500;28;102285;-75
2023/05/14 20:03:47;;;;;;;;;7.00;6.00;;;;;12.88;100.00;98196.41;4818072;28;104296;-75
2023/05/14 20:06:16;;;;;;;;;4.00;4.00;;;;;12.92;100.00;98193.03;4817952;29;104062;-74
2023/05/14 20:08:46;;;;;;;;;4.00;4.00;;;;;12.97;100.00;98200.50;4819567;28;102410;-75
2023/05/14 20:11:14;;;;;;;;;2.75;2.50;;;;;13.01;100.00;98193.59;4819001;28;102183;-75
2023/05/14 20:13:41;;;;;;;;;2.00;2.00;;;;;13.06;100.00;98198.34;4818191;28;104063;-75
2023/05/14 20:16:08;;;;;;;;;2.00;2.00;;;;;13.05;100.00;98194.78;4817024;28;102306;-75
2023/05/14 20:18:35;;;;;;;;;8.50;7.75;;;;;12.96;100.00;98188.00;4820229;28;102312;-75
2023/05/14 20:21:02;;;;;;;;;11.25;11.25;;;;;12.78;100.00;98174.44;4820006;29;102301;-74
2023/05/14 20:23:29;;;;;;;;;7.00;7.00;;;;;12.77;100.00;98175.47;4820800;28;104020;-75
2023/05/14 20:25:57;;;;;;;;;8.25;8.25;;;;;12.79;100.00;98159.78;4818658;28;102873;-74
2023/05/14 20:28:24;;;;;;;;;15.50;12.25;;;;;12.68;100.00;98163.25;4820619;29;102057;-74
2023/05/14 20:30:53;;;;;;;;;8.00;8.00;;;;;12.67;100.00;98156.19;4820986;29;102229;-76
2023/05/14 20:33:20;;;;;;;;;11.50;10.75;;;;;12.67;100.00;98156.19;4818940;28;112785;-75
2023/05/14 20:35:47;;;;;;;;;8.00;8.00;;;;;12.67;100.00;98145.31;4821463;28;102489;-76
2023/05/14 20:38:17;;;;;;;;;9.75;9.50;;;;;12.57;100.00;98139.59;4820835;29;102098;-76
2023/05/14 20:40:44;;;;;;;;;14.00;11.00;;;;;12.52;100.00;98124.81;4816188;29;102392;-75
2023/05/14 20:43:11;;;;;;;;;12.00;9.50;;;;;12.55;100.00;98117.31;4820376;28;104184;-75
2023/05/14 20:45:38;;;;;;;;;10.50;9.75;;;;;12.59;100.00;98094.94;4820925;29;102322;-74
2023/05/14 20:48:10;;;;;;;;;12.50;12.00;;;;;12.58;100.00;98087.00;4821547;29;102174;-75
2023/05/14 20:50:37;;;;;;;;;12.25;11.00;;;;;12.56;100.00;98078.28;4817208;28;102392;-74
2023/05/14 20:53:05;;;;;;;;;12.50;11.50;;;;;12.56;100.00;98056.59;4818088;29;104054;-75
2023/05/14 20:55:32;;;;;;;;;11.25;11.25;;;;;12.55;100.00;98044.09;4816266;28;102569;-76
2023/05/14 20:57:59;;;;;;;;;15.00;10.50;;;;;12.56;100.00;98035.72;4820589;29;101971;-75
2023/05/14 21:00:25;;;;;;;;;10.75;9.00;;;;;12.53;100.00;98031.56;4823493;29;102489;-72
2023/05/14 21:02:52;;;;;;;;;12.75;11.50;;;;;12.49;100.00;98018.69;4820451;29;104105;-76
2023/05/14 21:05:19;;;;;;;;;10.75;10.00;;;;;12.51;100.00;98003.03;4816910;28;102120;-74
2023/05/14 21:07:47;;;;;;;;;9.25;8.00;;;;;12.52;100.00;98004.66;4819463;28;102281;-75
2023/05/14 21:10:14;;;;;;;;;10.00;8.00;;;;;12.50;100.00;98007.63;4819677;29;102293;-75
2023/05/14 21:12:41;;;;;;;;;8.00;7.00;;;;;12.47;100.00;97985.56;4819073;29;104141;-75
2023/05/14 21:15:10;;;;;;;;;6.00;6.00;;;;;12.47;100.00;97980.16;4822298;28;102437;-75
2023/05/14 21:17:37;;;;;;;;;6.00;6.00;;;;;12.48;100.00;97979.06;4822814;28;102928;-75
2023/05/14 21:20:05;;;;;;;;;5.00;4.00;;;;;12.38;100.00;97974.19;4823655;29;102186;-75
2023/05/14 21:22:32;;;;;;;;;6.25;6.25;;;;;12.41;100.00;97979.16;4820996;29;104094;-74
2023/05/14 21:24:58;;;;;;;;;8.00;8.00;;;;;12.38;100.00;97979.59;4822152;29;102285;-75
2023/05/14 21:27:26;;;;;;;;;5.75;5.00;;;;;12.42;100.00;97974.56;4823744;29;102228;-74
2023/05/14 21:29:53;;;;;;;;;6.75;5.00;;;;;12.46;100.00;97976.59;4827306;28;102508;-75
2023/05/14 21:32:20;;;;;;;;;5.00;5.00;;;;;12.44;100.00;97983.28;4822355;28;108974;-75
2023/05/14 21:34:47;;;;;;;;;6.75;6.00;;;;;12.43;100.00;97979.75;4821084;29;102540;-75
2023/05/14 21:37:15;;;;;;;;;6.00;6.00;;;;;12.44;100.00;97986.84;4821205;28;102244;-75
2023/05/14 21:39:42;;;;;;;;;7.00;6.00;;;;;12.42;100.00;97975.41;4824248;29;102249;-75
2023/05/14 21:42:08;;;;;;;;;6.25;5.00;;;;;12.48;100.00;97989.91;4824065;28;104012;-76
2023/05/14 21:44:35;;;;;;;;;7.25;6.00;;;;;12.44;100.00;97981.41;4824428;29;102161;-75
2023/05/14 21:47:03;;;;;;;;;7.00;7.00;;;;;12.45;100.00;97980.38;4823070;28;102194;-75
2023/05/14 21:49:30;;;;;;;;;5.25;5.00;;;;;12.48;100.00;97965.50;4823630;28;102356;-75
2023/05/14 21:51:57;;;;;;;;;6.25;6.25;;;;;12.48;100.00;97957.38;4823349;29;104288;-75
2023/05/14 21:54:24;;;;;;;;;5.50;5.50;;;;;12.50;100.00;97956.09;4824226;28;101929;-75